createdAt,value
2022-09-15T00:02:10.301Z,99820.69
2022-09-15T00:04:36.749Z,99822.19
2022-09-15T00:07:03.054Z,99820.69
2022-09-15T00:09:29.371Z,99823.56
2022-09-15T00:11:55.688Z,99817.03
2022-09-15T00:14:21.993Z,99818.53
2022-09-15T00:16:48.330Z,99812.03
2022-09-15T00:19:14.694Z,99805.50
2022-09-15T00:21:41.116Z,99804.78
2022-09-15T00:24:07.421Z,99809.81
2022-09-15T00:26:33.718Z,99806.94
2022-09-15T00:29:00.029Z,99806.94
2022-09-15T00:31:28.951Z,99800.50
2022-09-15T00:33:56.710Z,99807.00
2022-09-15T00:36:23.141Z,99809.81
2022-09-15T00:38:49.467Z,99815.59
2022-09-15T00:41:16.945Z,99814.84
2022-09-15T00:43:45.946Z,99815.59
2022-09-15T00:46:12.576Z,99815.59
2022-09-15T00:48:44.213Z,99815.59
2022-09-15T00:51:10.526Z,99822.81
2022-09-15T00:53:36.877Z,99818.47
2022-09-15T00:56:03.252Z,99811.28
2022-09-15T00:58:30.953Z,99815.59
2022-09-15T01:00:58.266Z,99815.59
2022-09-15T01:03:24.719Z,99807.66
2022-09-15T01:05:53.625Z,99814.84
2022-09-15T01:08:26.815Z,99812.66
2022-09-15T01:10:53.121Z,99814.09
2022-09-15T01:13:19.430Z,99815.59
2022-09-15T01:16:05.442Z,99812.66
2022-09-15T01:18:51.247Z,99812.66
2022-09-15T01:21:34.919Z,99816.25
2022-09-15T01:24:20.120Z,99821.31
2022-09-15T01:26:54.160Z,99823.47
2022-09-15T01:29:38.329Z,99819.84
2022-09-15T01:32:42.056Z,99822.72
2022-09-15T01:35:08.295Z,99819.09
2022-09-15T01:37:36.885Z,99831.38
2022-09-15T01:40:03.351Z,99831.38
2022-09-15T01:42:29.925Z,99827.00
2022-09-15T01:44:57.930Z,99815.47
2022-09-15T01:47:24.273Z,99820.53
2022-09-15T01:49:51.197Z,99819.78
2022-09-15T01:52:17.937Z,99825.56
2022-09-15T01:54:48.681Z,99823.41
2022-09-15T01:57:21.186Z,99821.25
2022-09-15T01:59:48.033Z,99819.78
2022-09-15T02:02:15.828Z,99824.81
2022-09-15T02:04:47.206Z,99827.00
2022-09-15T02:07:15.421Z,99821.19
2022-09-15T02:09:48.445Z,99818.31
2022-09-15T02:12:19.872Z,99824.81
2022-09-15T02:14:55.951Z,99816.88
2022-09-15T02:17:22.345Z,99819.03
2022-09-15T02:19:53.774Z,99829.13
2022-09-15T02:22:23.278Z,99829.84
2022-09-15T02:24:57.204Z,99831.28
2022-09-15T02:27:24.276Z,99828.38
2022-09-15T02:29:51.911Z,99827.63
2022-09-15T02:32:18.773Z,99821.16
2022-09-15T02:34:46.069Z,99824.03
2022-09-15T02:37:12.376Z,99824.03
2022-09-15T02:39:39.838Z,99818.97
2022-09-15T02:42:06.238Z,99823.31
2022-09-15T02:44:32.800Z,99823.31
2022-09-15T02:46:59.369Z,99823.97
2022-09-15T02:49:25.705Z,99821.09
2022-09-15T02:51:52.018Z,99826.91
2022-09-15T02:54:18.832Z,99828.34
2022-09-15T02:56:45.249Z,99824.72
2022-09-15T02:59:11.598Z,99828.34
2022-09-15T03:01:38.924Z,99828.34
2022-09-15T03:04:05.278Z,99829.75
2022-09-15T03:06:34.715Z,99818.22
2022-09-15T03:09:02.719Z,99826.84
2022-09-15T03:11:29.057Z,99818.91
2022-09-15T03:13:56.130Z,99819.63
2022-09-15T03:16:22.517Z,99818.22
2022-09-15T03:18:48.890Z,99822.53
2022-09-15T03:21:15.513Z,99809.50
2022-09-15T03:23:41.911Z,99822.53
2022-09-15T03:26:09.094Z,99818.16
2022-09-15T03:28:35.733Z,99826.81
2022-09-15T03:31:02.100Z,99815.28
2022-09-15T03:33:29.707Z,99815.28
2022-09-15T03:35:56.025Z,99822.47
2022-09-15T03:38:22.342Z,99826.06
2022-09-15T03:41:07.699Z,99825.34
2022-09-15T03:43:34.089Z,99823.91
2022-09-15T03:46:00.492Z,99818.13
2022-09-15T03:48:26.911Z,99818.13
2022-09-15T03:50:53.243Z,99815.97
2022-09-15T03:53:20.095Z,99826.06
2022-09-15T03:55:46.451Z,99815.97
2022-09-15T03:58:12.768Z,99813.78
2022-09-15T04:00:39.261Z,99819.53
2022-09-15T04:03:06.704Z,99822.41
2022-09-15T04:05:33.075Z,99819.53
2022-09-15T04:07:59.399Z,99815.94
2022-09-15T04:10:25.921Z,99812.31
2022-09-15T04:12:52.490Z,99813.72
2022-09-15T04:15:19.249Z,99816.59
2022-09-15T04:17:45.696Z,99814.44
2022-09-15T04:20:12.041Z,99814.44
2022-09-15T04:22:38.364Z,99813.72
2022-09-15T04:25:04.765Z,99813.00
2022-09-15T04:27:34.302Z,99813.72
2022-09-15T04:30:00.679Z,99812.28
2022-09-15T04:32:28.202Z,99810.78
2022-09-15T04:34:54.527Z,99813.00
2022-09-15T04:37:20.844Z,99803.56
2022-09-15T04:39:47.782Z,99817.97
2022-09-15T04:42:14.186Z,99811.66
2022-09-15T04:44:40.845Z,99809.66
2022-09-15T04:47:07.334Z,99809.13
2022-09-15T04:49:33.790Z,99810.06
2022-09-15T04:52:00.105Z,99812.38
2022-09-15T04:54:26.673Z,99814.56
2022-09-15T04:56:52.985Z,99813.72
2022-09-15T04:59:19.388Z,99810.84
2022-09-15T05:01:45.781Z,99809.44
2022-09-15T05:04:12.133Z,99811.63
2022-09-15T05:06:38.494Z,99813.81
2022-09-15T05:09:09.782Z,99813.09
2022-09-15T05:11:36.693Z,99814.56
2022-09-15T05:14:03.394Z,99806.63
2022-09-15T05:16:29.743Z,99806.63
2022-09-15T05:18:56.766Z,99808.06
2022-09-15T05:21:23.129Z,99813.81
2022-09-15T05:23:49.566Z,99809.50
2022-09-15T05:26:16.690Z,99812.38
2022-09-15T05:28:43.365Z,99809.00
2022-09-15T05:31:10.652Z,99806.47
2022-09-15T05:33:37.341Z,99818.19
2022-09-15T05:36:03.908Z,99809.66
2022-09-15T05:38:30.929Z,99812.56
2022-09-15T05:41:03.345Z,99817.03
2022-09-15T05:43:33.931Z,99824.22
2022-09-15T05:46:00.287Z,99817.75
2022-09-15T05:48:26.821Z,99831.63
2022-09-15T05:50:53.513Z,99832.34
2022-09-15T05:53:19.827Z,99836.00
2022-09-15T05:55:46.211Z,99828.13
2022-09-15T05:58:12.536Z,99820.97
2022-09-15T06:00:38.853Z,99824.38
2022-09-15T06:03:05.196Z,99823.69
2022-09-15T06:05:31.554Z,99824.53
2022-09-15T06:07:57.864Z,99816.75
2022-09-15T06:10:27.116Z,99823.22
2022-09-15T06:12:53.489Z,99831.22
2022-09-15T06:15:20.213Z,99831.94
2022-09-15T06:17:46.513Z,99830.44
2022-09-15T06:20:12.825Z,99828.28
2022-09-15T06:22:39.137Z,99827.38
2022-09-15T06:25:05.857Z,99832.34
2022-09-15T06:27:32.175Z,99827.22
2022-09-15T06:29:58.478Z,99828.94
2022-09-15T06:32:24.798Z,99825.94
2022-09-15T06:34:51.123Z,99829.34
2022-09-15T06:37:17.462Z,99830.66
2022-09-15T06:39:44.238Z,99829.94
2022-09-15T06:42:13.804Z,99828.56
2022-09-15T06:44:41.273Z,99831.47
2022-09-15T06:47:07.658Z,99834.34
2022-09-15T06:49:34.007Z,99837.19
2022-09-15T06:52:02.434Z,99832.91
2022-09-15T06:54:28.777Z,99829.25
2022-09-15T06:56:55.094Z,99842.19
2022-09-15T06:59:23.841Z,99839.97
2022-09-15T07:01:54.214Z,99842.91
2022-09-15T07:04:20.608Z,99843.28
2022-09-15T07:06:46.951Z,99845.47
2022-09-15T07:09:13.365Z,99846.03
2022-09-15T07:11:39.715Z,99856.22
2022-09-15T07:14:06.046Z,99860.00
2022-09-15T07:16:32.435Z,99863.13
2022-09-15T07:19:01.189Z,99869.28
2022-09-15T07:21:27.502Z,99858.47
2022-09-15T07:23:54.139Z,99862.69
2022-09-15T07:26:21.225Z,99865.34
2022-09-15T07:28:49.827Z,99867.13
2022-09-15T07:31:16.654Z,99875.28
2022-09-15T07:33:43.043Z,99871.06
2022-09-15T07:36:09.449Z,99873.84
2022-09-15T07:38:35.773Z,99874.03
2022-09-15T07:41:02.769Z,99869.72
2022-09-15T07:43:29.098Z,99881.19
2022-09-15T07:45:58.573Z,99884.44
2022-09-15T07:48:26.607Z,99871.72
2022-09-15T07:50:53.059Z,99881.22
2022-09-15T07:53:19.379Z,99876.22
2022-09-15T07:55:45.710Z,99889.88
2022-09-15T07:58:12.018Z,99884.91
2022-09-15T08:00:39.140Z,99885.59
2022-09-15T08:03:05.491Z,99881.97
2022-09-15T08:05:36.250Z,99889.19
2022-09-15T08:08:05.494Z,99881.28
2022-09-15T08:10:31.809Z,99884.22
2022-09-15T08:13:00.870Z,99895.00
2022-09-15T08:15:27.195Z,99887.88
2022-09-15T08:17:53.510Z,99895.06
2022-09-15T08:20:19.847Z,99894.38
2022-09-15T08:22:46.231Z,99895.72
2022-09-15T08:25:12.855Z,99903.75
2022-09-15T08:27:39.365Z,99900.88
2022-09-15T08:30:06.012Z,99908.00
2022-09-15T08:32:32.329Z,99909.09
2022-09-15T08:34:58.690Z,99902.41
2022-09-15T08:37:25.005Z,99901.41
2022-09-15T08:39:52.000Z,99901.13
2022-09-15T08:42:18.709Z,99904.13
2022-09-15T08:44:45.050Z,99905.03
2022-09-15T08:47:12.755Z,99911.50
2022-09-15T08:49:51.214Z,99907.06
2022-09-15T08:52:26.809Z,99915.78
2022-09-15T08:54:53.463Z,99905.56
2022-09-15T08:57:19.953Z,99906.03
2022-09-15T08:59:46.265Z,99901.56
2022-09-15T09:02:23.530Z,99891.19
2022-09-15T09:05:09.060Z,99900.28
2022-09-15T09:07:38.307Z,99900.38
2022-09-15T09:10:11.113Z,99896.69
2022-09-15T09:12:41.245Z,99891.69
2022-09-15T09:15:24.641Z,99899.47
2022-09-15T09:17:50.936Z,99895.28
2022-09-15T09:20:20.521Z,99905.69
2022-09-15T09:22:46.829Z,99898.63
2022-09-15T09:25:26.526Z,99893.59
2022-09-15T09:27:53.347Z,99895.91
2022-09-15T09:30:20.234Z,99894.19
2022-09-15T09:32:47.925Z,99895.44
2022-09-15T09:35:17.113Z,99895.75
2022-09-15T09:37:43.665Z,99888.81
2022-09-15T09:40:13.946Z,99885.84
2022-09-15T09:42:40.350Z,99889.03
2022-09-15T09:45:07.486Z,99887.41
2022-09-15T09:47:34.860Z,99892.97
2022-09-15T09:50:01.166Z,99889.53
2022-09-15T09:52:34.219Z,99882.31
2022-09-15T09:55:01.544Z,99878.31
2022-09-15T09:57:30.962Z,99889.78
2022-09-15T09:59:57.264Z,99881.03
2022-09-15T10:02:24.794Z,99887.00
2022-09-15T10:05:15.994Z,99892.78
2022-09-15T10:07:43.748Z,99891.28
2022-09-15T10:10:18.230Z,99891.28
2022-09-15T10:12:44.539Z,99884.06
2022-09-15T10:15:29.865Z,99892.66
2022-09-15T10:17:56.188Z,99897.72
2022-09-15T10:20:22.786Z,99893.69
2022-09-15T10:22:49.094Z,99885.16
2022-09-15T10:25:21.123Z,99881.75
2022-09-15T10:28:06.318Z,99876.88
2022-09-15T10:30:32.639Z,99882.75
2022-09-15T10:33:10.002Z,99876.97
2022-09-15T10:35:36.453Z,99877.78
2022-09-15T10:38:09.473Z,99877.06
2022-09-15T10:40:41.550Z,99875.63
2022-09-15T10:43:20.213Z,99882.09
2022-09-15T10:45:50.957Z,99886.38
2022-09-15T10:48:23.223Z,99875.53
2022-09-15T10:50:49.454Z,99877.66
2022-09-15T10:53:17.164Z,99879.81
2022-09-15T10:55:52.645Z,99880.47
2022-09-15T10:58:39.980Z,99880.47
2022-09-15T11:01:15.978Z,99881.25
2022-09-15T11:03:47.305Z,99875.47
2022-09-15T11:06:33.813Z,99874.03
2022-09-15T11:09:09.443Z,99877.66
2022-09-15T11:11:44.377Z,99877.66
2022-09-15T11:14:20.965Z,99881.25
2022-09-15T11:17:06.936Z,99871.84
2022-09-15T11:19:43.407Z,99876.19
2022-09-15T11:22:39.145Z,99879.66
2022-09-15T11:25:10.714Z,99873.81
2022-09-15T11:27:39.928Z,99871.00
2022-09-15T11:30:18.877Z,99869.66
2022-09-15T11:32:46.836Z,99881.91
2022-09-15T11:35:33.350Z,99874.00
2022-09-15T11:38:03.294Z,99876.16
2022-09-15T11:40:33.286Z,99876.72
2022-09-15T11:43:00.428Z,99883.31
2022-09-15T11:45:27.776Z,99874.66
2022-09-15T11:47:56.357Z,99879.03
2022-09-15T11:50:35.785Z,99878.31
2022-09-15T11:53:16.689Z,99874.00
2022-09-15T11:55:43.578Z,99881.25
2022-09-15T11:58:22.148Z,99873.81
2022-09-15T12:01:03.103Z,99871.06
2022-09-15T12:03:32.017Z,99871.09
2022-09-15T12:06:00.083Z,99866.81
2022-09-15T12:08:29.990Z,99869.75
2022-09-15T12:10:56.591Z,99882.81
2022-09-15T12:13:24.028Z,99879.75
2022-09-15T12:15:50.677Z,99876.31
2022-09-15T12:18:38.569Z,99875.22
2022-09-15T12:21:05.509Z,99873.72
2022-09-15T12:23:32.820Z,99863.19
2022-09-15T12:26:15.672Z,99859.09
2022-09-15T12:28:51.110Z,99870.56
2022-09-15T12:31:23.493Z,99876.72
2022-09-15T12:33:53.388Z,99883.22
2022-09-15T12:36:29.634Z,99875.28
2022-09-15T12:38:55.951Z,99889.84
2022-09-15T12:41:22.637Z,99888.50
2022-09-15T12:43:52.988Z,99879.72
2022-09-15T12:46:19.423Z,99892.88
2022-09-15T12:48:47.514Z,99878.56
2022-09-15T12:51:20.666Z,99884.47
2022-09-15T12:53:50.799Z,99876.53
2022-09-15T12:56:24.569Z,99885.78
2022-09-15T12:58:50.965Z,99880.06
2022-09-15T13:01:23.270Z,99873.88
2022-09-15T13:03:49.594Z,99873.81
2022-09-15T13:06:17.082Z,99871.56
2022-09-15T13:08:44.653Z,99868.69
2022-09-15T13:11:10.897Z,99867.97
2022-09-15T13:13:56.280Z,99885.22
2022-09-15T13:16:27.436Z,99880.69
2022-09-15T13:19:03.475Z,99873.38
2022-09-15T13:21:29.790Z,99881.13
2022-09-15T13:23:56.101Z,99869.22
2022-09-15T13:26:23.973Z,99875.09
2022-09-15T13:28:52.731Z,99868.44
2022-09-15T13:31:34.403Z,99874.16
2022-09-15T13:40:00.791Z,99875.38
2022-09-15T13:42:36.930Z,99865.63
2022-09-15T13:45:16.519Z,99860.00
2022-09-15T13:47:58.789Z,99859.34
2022-09-15T13:50:31.171Z,99848.72
2022-09-15T13:52:57.549Z,99860.63
2022-09-15T13:55:26.181Z,99846.22
2022-09-15T14:00:48.240Z,99842.03
2022-09-15T14:03:17.328Z,99844.97
2022-09-15T14:05:43.807Z,99850.75
2022-09-15T14:08:13.948Z,99839.94
2022-09-15T14:10:51.227Z,99847.91
2022-09-15T14:13:17.810Z,99839.28
2022-09-15T14:16:03.294Z,99836.34
2022-09-15T14:18:29.764Z,99837.88
2022-09-15T14:21:00.365Z,99832.09
2022-09-15T14:23:26.688Z,99847.91
2022-09-15T14:25:53.010Z,99842.25
2022-09-15T14:28:21.345Z,99844.94
2022-09-15T14:30:47.741Z,99850.16
2022-09-15T14:33:15.519Z,99834.19
2022-09-15T14:35:41.963Z,99849.22
2022-09-15T14:38:18.273Z,99854.56
2022-09-15T14:40:44.699Z,99835.78
2022-09-15T14:43:27.289Z,99843.72
2022-09-15T14:45:57.772Z,99846.63
2022-09-15T14:48:28.097Z,99848.09
2022-09-15T14:50:56.834Z,99850.31
2022-09-15T14:53:23.168Z,99853.94
2022-09-15T14:55:53.253Z,99852.53
2022-09-15T14:58:23.815Z,99847.00
2022-09-15T15:00:58.104Z,99848.63
2022-09-15T15:03:27.954Z,99846.41
2022-09-15T15:06:02.463Z,99841.31
2022-09-15T15:08:35.446Z,99838.38
2022-09-15T15:11:01.928Z,99841.22
2022-09-15T15:13:28.255Z,99847.81
2022-09-15T15:15:54.833Z,99845.56
2022-09-15T15:18:38.452Z,99851.94
2022-09-15T15:21:05.250Z,99851.78
2022-09-15T15:23:32.187Z,99849.38
2022-09-15T15:26:23.094Z,99851.03
2022-09-15T15:28:49.427Z,99846.72
2022-09-15T15:31:19.263Z,99864.00
2022-09-15T15:33:49.231Z,99871.16
2022-09-15T15:36:15.711Z,99884.38
2022-09-15T15:38:47.240Z,99886.50
2022-09-15T15:41:18.869Z,99891.44
2022-09-15T15:43:54.493Z,99897.19
2022-09-15T15:46:40.793Z,99894.13
2022-09-15T15:49:10.828Z,99899.22
2022-09-15T15:51:37.264Z,99895.66
2022-09-15T15:54:03.650Z,99895.81
2022-09-15T15:56:31.194Z,99886.66
2022-09-15T15:58:59.903Z,99889.78
2022-09-15T16:01:26.284Z,99899.44
2022-09-15T16:03:52.676Z,99895.94
2022-09-15T16:06:18.995Z,99895.97
2022-09-15T16:08:45.318Z,99893.03
2022-09-15T16:11:12.377Z,99894.50
2022-09-15T16:13:38.834Z,99887.19
2022-09-15T16:16:18.255Z,99882.84
2022-09-15T16:18:44.866Z,99889.97
2022-09-15T16:21:13.711Z,99881.59
2022-09-15T16:23:40.115Z,99879.41
2022-09-15T16:26:09.455Z,99893.91
2022-09-15T16:28:35.766Z,99888.94
2022-09-15T16:31:02.194Z,99888.81
2022-09-15T16:33:28.686Z,99902.84
2022-09-15T16:36:06.666Z,99905.84
2022-09-15T16:38:33.311Z,99903.81
2022-09-15T16:40:59.843Z,99900.19
2022-09-15T16:43:26.219Z,99901.53
2022-09-15T16:45:52.546Z,99905.81
2022-09-15T16:48:18.896Z,99910.09
2022-09-15T16:51:01.672Z,99908.81
2022-09-15T16:53:33.022Z,99916.81
2022-09-15T16:55:59.390Z,99898.38
2022-09-15T16:58:25.708Z,99905.09
2022-09-15T17:00:52.812Z,99914.13
2022-09-15T17:03:20.218Z,99904.59
2022-09-15T17:05:48.518Z,99890.00
2022-09-15T17:08:15.171Z,99906.53
2022-09-15T17:10:41.501Z,99900.09
2022-09-15T17:13:07.833Z,99904.38
2022-09-15T17:15:34.951Z,99899.44
2022-09-15T17:18:01.388Z,99899.41
2022-09-15T17:20:27.690Z,99901.75
2022-09-15T17:22:54.080Z,99909.78
2022-09-15T17:25:24.483Z,99900.94
2022-09-15T17:27:51.550Z,99909.47
2022-09-15T17:30:18.223Z,99902.16
2022-09-15T17:32:44.535Z,99907.31
2022-09-15T17:35:31.180Z,99907.22
2022-09-15T17:37:57.507Z,99907.44
2022-09-15T17:40:23.843Z,99910.81
2022-09-15T17:42:50.194Z,99910.19
2022-09-15T17:45:35.431Z,99907.22
2022-09-15T17:48:02.401Z,99908.94
2022-09-15T17:50:29.339Z,99920.41
2022-09-15T17:52:55.725Z,99909.75
2022-09-15T17:55:21.995Z,99920.03
2022-09-15T17:57:48.703Z,99923.59
2022-09-15T18:00:15.650Z,99922.19
2022-09-15T18:02:42.324Z,99922.84
2022-09-15T18:05:38.015Z,99908.41
2022-09-15T18:08:04.986Z,99912.69
2022-09-15T18:10:31.686Z,99921.28
2022-09-15T18:12:58.022Z,99919.81
2022-09-15T18:15:25.994Z,99924.06
2022-09-15T18:17:52.910Z,99926.97
2022-09-15T18:20:20.552Z,99935.56
2022-09-15T18:22:47.110Z,99935.56
2022-09-15T18:25:15.041Z,99935.53
2022-09-15T18:27:41.353Z,99928.97
2022-09-15T18:30:07.952Z,99942.63
2022-09-15T18:32:34.314Z,99941.91
2022-09-15T18:35:00.646Z,99938.31
2022-09-15T18:37:26.985Z,99944.03
2022-09-15T18:39:53.427Z,99945.47
2022-09-15T18:42:19.837Z,99945.47
2022-09-15T18:44:46.176Z,99952.63
2022-09-15T18:47:13.098Z,99946.84
2022-09-15T18:49:39.460Z,99942.53
2022-09-15T18:52:05.791Z,99945.31
2022-09-15T18:54:34.794Z,99938.13
2022-09-15T18:57:01.120Z,99941.03
2022-09-15T18:59:27.451Z,99946.75
2022-09-15T19:01:53.855Z,99943.81
2022-09-15T19:04:20.318Z,99948.09
2022-09-15T19:06:46.623Z,99943.81
2022-09-15T19:09:12.962Z,99950.31
2022-09-15T19:11:39.285Z,99948.09
2022-09-15T19:14:05.606Z,99953.19
2022-09-15T19:16:53.798Z,99956.06
2022-09-15T19:19:19.522Z,99948.03
2022-09-15T19:21:45.838Z,99948.03
2022-09-15T19:24:12.153Z,99943.72
2022-09-15T19:26:38.546Z,99953.75
2022-09-15T19:29:04.967Z,99955.25
2022-09-15T19:31:31.279Z,99953.03
2022-09-15T19:33:57.634Z,99950.84
2022-09-15T19:36:28.468Z,99951.59
2022-09-15T19:38:55.215Z,99955.19
2022-09-15T19:41:21.550Z,99948.69
2022-09-15T19:43:47.898Z,99946.50
2022-09-15T19:46:15.102Z,99954.47
2022-09-15T19:48:44.529Z,99947.13
2022-09-15T19:51:15.821Z,99955.00
2022-09-15T19:53:42.155Z,99953.59
2022-09-15T19:56:12.062Z,99940.59
2022-09-15T19:58:38.385Z,99943.44
2022-09-15T20:01:04.722Z,99943.38
2022-09-15T20:03:31.065Z,99946.31
2022-09-15T20:05:57.861Z,99949.19
2022-09-15T20:08:24.314Z,99957.13
2022-09-15T20:10:50.618Z,99962.19
2022-09-15T20:13:17.000Z,99956.38
2022-09-15T20:15:43.519Z,99969.25
2022-09-15T20:18:11.423Z,99964.28
2022-09-15T20:20:38.890Z,99960.69
2022-09-15T20:23:05.262Z,99969.31
2022-09-15T20:25:32.261Z,99975.09
2022-09-15T20:27:58.658Z,99975.81
2022-09-15T20:30:25.032Z,99979.38
2022-09-15T20:32:51.716Z,99980.78
2022-09-15T20:35:18.039Z,99986.50
2022-09-15T20:37:44.407Z,99980.13
2022-09-15T20:40:10.816Z,99972.13
2022-09-15T20:42:37.161Z,99975.00
2022-09-15T20:45:03.983Z,99967.13
2022-09-15T20:47:30.285Z,99967.78
2022-09-15T20:49:56.597Z,99969.91
2022-09-15T20:52:25.814Z,99969.91
2022-09-15T20:54:54.314Z,99973.56
2022-09-15T20:57:20.618Z,99971.41
2022-09-15T20:59:46.962Z,99974.84
2022-09-15T21:02:13.312Z,99983.56
2022-09-15T21:04:39.855Z,99982.78
2022-09-15T21:07:06.197Z,99982.09
2022-09-15T21:09:32.506Z,99981.47
2022-09-15T21:11:59.985Z,99976.38
2022-09-15T21:14:26.302Z,99969.13
2022-09-15T21:16:52.735Z,99969.13
2022-09-15T21:19:19.113Z,99965.53
2022-09-15T21:21:45.544Z,99973.44
2022-09-15T21:24:11.855Z,99982.06
2022-09-15T21:26:57.772Z,99968.34
2022-09-15T21:29:24.093Z,99974.84
2022-09-15T21:31:50.466Z,99985.00
2022-09-15T21:34:17.004Z,99987.88
2022-09-15T21:36:43.337Z,99982.09
2022-09-15T21:39:10.025Z,99986.38
2022-09-15T21:41:36.374Z,99992.16
2022-09-15T21:44:02.693Z,99989.22
2022-09-15T21:46:29.411Z,99991.38
2022-09-15T21:48:55.966Z,99989.22
2022-09-15T21:51:24.881Z,99990.66
2022-09-15T21:53:52.099Z,99994.25
2022-09-15T21:56:18.414Z,100012.28
2022-09-15T21:58:44.729Z,100012.19
2022-09-15T22:01:12.423Z,100016.53
2022-09-15T22:03:42.055Z,100012.22
2022-09-15T22:06:11.705Z,100007.16
2022-09-15T22:08:38.500Z,100017.25
2022-09-15T22:11:04.823Z,100016.59
2022-09-15T22:13:31.125Z,100016.59
2022-09-15T22:16:03.789Z,100020.84
2022-09-15T22:18:30.147Z,100029.50
2022-09-15T22:21:22.915Z,100026.63
2022-09-15T22:23:49.855Z,100035.25
2022-09-15T22:26:17.440Z,100033.06
2022-09-15T22:28:44.071Z,100028.69
2022-09-15T22:31:10.999Z,100032.31
2022-09-15T22:33:37.517Z,100042.44
2022-09-15T22:36:03.867Z,100030.22
2022-09-15T22:38:30.298Z,100038.81
2022-09-15T22:40:56.657Z,100035.16
2022-09-15T22:43:22.974Z,100032.16
2022-09-15T22:45:49.560Z,100032.22
2022-09-15T22:48:15.963Z,100034.38
2022-09-15T22:50:43.561Z,100029.38
2022-09-15T22:53:09.956Z,100039.44
2022-09-15T22:55:36.269Z,100035.09
2022-09-15T22:58:02.591Z,100033.59
2022-09-15T23:00:28.966Z,100029.22
2022-09-15T23:02:56.113Z,100038.59
2022-09-15T23:05:22.437Z,100033.47
2022-09-15T23:07:48.750Z,100027.06
2022-09-15T23:10:15.086Z,100028.44
2022-09-15T23:12:41.461Z,100030.66
2022-09-15T23:15:08.023Z,100034.25
2022-09-15T23:17:34.393Z,100032.09
2022-09-15T23:20:00.831Z,100032.09
2022-09-15T23:22:27.158Z,100027.72
2022-09-15T23:24:53.475Z,100029.09
2022-09-15T23:27:19.822Z,100039.22
2022-09-15T23:29:46.192Z,100029.88
2022-09-15T23:32:12.510Z,100038.59
2022-09-15T23:34:38.846Z,100028.44
2022-09-15T23:37:05.158Z,100039.22
2022-09-15T23:39:31.479Z,100034.94
2022-09-15T23:41:57.799Z,100039.22
2022-09-15T23:44:24.160Z,100026.22
2022-09-15T23:46:50.494Z,100033.47
2022-09-15T23:49:18.823Z,100034.94
2022-09-15T23:51:45.261Z,100043.50
2022-09-15T23:54:11.574Z,100043.56
2022-09-15T23:56:37.896Z,100040.63
2022-09-15T23:59:04.204Z,100042.06
